Brookhaven, NY (11719)

12:52 PM EST on December 28, 2014 (GMT -0500)
Brookhaven Hamlet | Change Station
CLOSE
Current Station
Personal Weather Station
Location: Brookhaven, NY
Elevation: 10 ft
Nearby Weather Stations

Elev 10 ft 40.76 °N, 72.91 °W | Updated 14 minutes ago

Mostly Cloudy
Mostly Cloudy
47.7 °F
Feels Like 48 °F
N
3.0
Wind Variable Wind from SE
Gusts 11.0 mph

Today
High -- | Low -- °F
--% Chance of Precip.
Yesterday
High -- | Low -- °F
Precip. -- in
7:15 AM 4:31 PM
Waxing Crescent, 50% visible
Pressure 29.88 in
Visibility 10.0 miles
Clouds Mostly Cloudy 8500 ft
Windchill 48 °F
Dew Point 44 °F
Humidity 86%
Rainfall 0.04 in
Snow Depth Not available.
UV 1 out of 12
Pollen .10 out of 12
Air Quality Not available.
Flu Activity Not available.
METAR KHWV 281656Z AUTO 24008KT 10SM BKN085 09/06 A2987 RMK AO2 SLP116 T00890061 TSNO

More Conditions Fewer Conditions

Pressure 29.88 in
Visibility 10.0 miles
Clouds Mostly Cloudy 8500 ft
Windchill 48 °F
Dew Point 44 °F
Humidity 86%
Rainfall 0.04 in
Snow Depth Not available.
UV 1 out of 12
Pollen .10 out of 12
Air Quality Not available.
Flu Activity Not available.
METAR KHWV 281656Z AUTO 24008KT 10SM BKN085 09/06 A2987 RMK AO2 SLP116 T00890061 TSNO

More Conditions Fewer Conditions

10-Day Weather Forecast

Almanac

Astronomy

Dec. 28, 2014 Rise Set
Actual Time
Civil Twilight
Nautical Twilight
Astronomical Twilight
Moon
Length of Visible Light
Length of Day
Tomorrow will be .
, % of the Moon is Illuminated

Today's Extremes

State Highs State Lows

Community

WunderPhotos

Upload Photos

1,781,367 photos uploaded!

WunderBlogs® & News

Nearby

Air Quality

  Air Quality AQ Index Pollutant
Not available.

Snow Depth

Station Depth Elevation

Earthquake Activity

City Distance Mag. Time & Date
Minimum magnitude displayed is 2.5.

Coastal Water Temperatures

Place Temperature

Nearby Weather Stations